sensor_id;sensor_type;location;lat;lon;timestamp;pressure;altitude;pressure_sealevel;temperature;humidity
75923;BME280;64602;47.542;19.090;2023-02-28T06:49:46;101546.78;;;2.05;51.67
75923;BME280;64602;47.542;19.090;2023-02-28T06:54:48;101553.62;;;2.16;51.25
75923;BME280;64602;47.542;19.090;2023-02-28T07:00:06;101560.34;;;2.20;50.77
75923;BME280;64602;47.542;19.090;2023-02-28T07:05:09;101544.94;;;2.22;50.85
75923;BME280;64602;47.542;19.090;2023-02-28T07:10:11;101542.91;;;2.32;50.67
75923;BME280;64602;47.542;19.090;2023-02-28T07:15:14;101553.28;;;2.51;50.12
75923;BME280;64602;47.542;19.090;2023-02-28T07:20:16;101543.03;;;2.63;49.83
75923;BME280;64602;47.542;19.090;2023-02-28T07:25:18;101551.69;;;2.90;49.35
75923;BME280;64602;47.542;19.090;2023-02-28T07:30:21;101565.84;;;3.07;48.60
75923;BME280;64602;47.542;19.090;2023-02-28T07:35:23;101574.16;;;3.28;48.63
75923;BME280;64602;47.542;19.090;2023-02-28T07:40:26;101557.47;;;3.41;47.99
75923;BME280;64602;47.542;19.090;2023-02-28T07:45:29;101555.59;;;3.50;47.64
75923;BME280;64602;47.542;19.090;2023-02-28T07:50:31;101569.25;;;3.63;47.34
75923;BME280;64602;47.542;19.090;2023-02-28T07:55:33;101584.25;;;3.80;46.64
75923;BME280;64602;47.542;19.090;2023-02-28T08:00:35;101569.34;;;3.78;46.74
75923;BME280;64602;47.542;19.090;2023-02-28T08:05:41;101559.31;;;3.72;46.74
75923;BME280;64602;47.542;19.090;2023-02-28T08:10:43;101581.63;;;3.95;46.56
75923;BME280;64602;47.542;19.090;2023-02-28T08:15:45;101583.25;;;4.04;46.18
75923;BME280;64602;47.542;19.090;2023-02-28T08:20:49;101579.69;;;4.27;45.97
75923;BME280;64602;47.542;19.090;2023-02-28T08:25:57;101567.22;;;4.49;44.93
75923;BME280;64602;47.542;19.090;2023-02-28T08:31:00;101584.44;;;4.92;43.92
75923;BME280;64602;47.542;19.090;2023-02-28T08:36:02;101569.69;;;5.18;43.52
75923;BME280;64602;47.542;19.090;2023-02-28T08:41:07;101559.59;;;5.56;42.26
75923;BME280;64602;47.542;19.090;2023-02-28T08:46:12;101563.75;;;5.59;41.64
75923;BME280;64602;47.542;19.090;2023-02-28T08:51:16;101579.09;;;5.95;41.54
75923;BME280;64602;47.542;19.090;2023-02-28T08:56:21;101579.03;;;6.38;40.90
75923;BME280;64602;47.542;19.090;2023-02-28T09:01:28;101582.87;;;6.78;39.84
75923;BME280;64602;47.542;19.090;2023-02-28T09:06:31;101572.47;;;7.10;39.68
75923;BME280;64602;47.542;19.090;2023-02-28T09:11:34;101560.06;;;6.81;39.08
75923;BME280;64602;47.542;19.090;2023-02-28T09:16:37;101575.31;;;7.37;38.51
75923;BME280;64602;47.542;19.090;2023-02-28T09:21:39;101581.91;;;7.89;38.03
75923;BME280;64602;47.542;19.090;2023-02-28T09:26:41;101563.81;;;7.83;37.53
75923;BME280;64602;47.542;19.090;2023-02-28T09:32:04;101575.56;;;7.48;38.04
75923;BME280;64602;47.542;19.090;2023-02-28T09:37:07;101569.78;;;7.58;38.50
75923;BME280;64602;47.542;19.090;2023-02-28T09:42:21;101591.31;;;7.38;39.13
75923;BME280;64602;47.542;19.090;2023-02-28T09:52:31;101591.53;;;7.02;39.69
75923;BME280;64602;47.542;19.090;2023-02-28T09:57:38;101570.03;;;7.22;39.10
75923;BME280;64602;47.542;19.090;2023-02-28T10:09:11;101575.91;;;8.07;38.21
75923;BME280;64602;47.542;19.090;2023-02-28T10:14:33;101560.88;;;7.78;37.18
75923;BME280;64602;47.542;19.090;2023-02-28T10:19:20;101576.53;;;8.22;37.63
75923;BME280;64602;47.542;19.090;2023-02-28T10:24:35;101580.25;;;8.94;36.24
75923;BME280;64602;47.542;19.090;2023-02-28T10:29:42;101562.53;;;9.95;34.62
75923;BME280;64602;47.542;19.090;2023-02-28T10:34:45;101570.28;;;9.85;34.49
75923;BME280;64602;47.542;19.090;2023-02-28T10:39:52;101561.53;;;10.46;33.99
75923;BME280;64602;47.542;19.090;2023-02-28T10:45:16;101541.94;;;11.37;32.52
75923;BME280;64602;47.542;19.090;2023-02-28T10:55:32;101545.28;;;11.99;31.97
75923;BME280;64602;47.542;19.090;2023-02-28T11:00:35;101536.09;;;11.51;32.45
75923;BME280;64602;47.542;19.090;2023-02-28T11:05:38;101537.59;;;10.99;33.11
75923;BME280;64602;47.542;19.090;2023-02-28T11:10:48;101514.25;;;9.40;35.39
75923;BME280;64602;47.542;19.090;2023-02-28T11:15:57;101520.72;;;9.39;36.38
75923;BME280;64602;47.542;19.090;2023-02-28T11:21:01;101530.69;;;9.46;36.77
75923;BME280;64602;47.542;19.090;2023-02-28T11:26:04;101520.91;;;9.45;36.58
75923;BME280;64602;47.542;19.090;2023-02-28T11:36:31;101520.53;;;8.83;38.01
75923;BME280;64602;47.542;19.090;2023-02-28T11:47:07;101506.97;;;9.34;37.19
75923;BME280;64602;47.542;19.090;2023-02-28T12:14:05;101483.69;;;11.86;33.39
75923;BME280;64602;47.542;19.090;2023-02-28T12:24:49;101495.59;;;12.15;33.42
75923;BME280;64602;47.542;19.090;2023-02-28T12:35:37;101477.22;;;14.13;30.34
75923;BME280;64602;47.542;19.090;2023-02-28T12:40:47;101473.31;;;13.30;31.19
75923;BME280;64602;47.542;19.090;2023-02-28T12:45:57;101466.22;;;13.74;30.93
75923;BME280;64602;47.542;19.090;2023-02-28T12:51:01;101468.84;;;15.47;28.34
75923;BME280;64602;47.542;19.090;2023-02-28T13:12:51;101445.53;;;12.52;32.50
75923;BME280;64602;47.542;19.090;2023-02-28T13:17:55;101440.25;;;12.10;33.33
75923;BME280;64602;47.542;19.090;2023-02-28T13:22:57;101443.97;;;11.31;34.32
75923;BME280;64602;47.542;19.090;2023-02-28T13:28:02;101448.69;;;11.06;35.12
75923;BME280;64602;47.542;19.090;2023-02-28T13:38:32;101436.28;;;10.80;35.50
75923;BME280;64602;47.542;19.090;2023-02-28T14:00:01;101430.44;;;15.09;28.83
75923;BME280;64602;47.542;19.090;2023-02-28T14:05:17;101422.28;;;17.12;26.12
75923;BME280;64602;47.542;19.090;2023-02-28T14:10:29;101426.72;;;17.43;26.10
75923;BME280;64602;47.542;19.090;2023-02-28T14:20:35;101395.03;;;11.85;32.96
75923;BME280;64602;47.542;19.090;2023-02-28T14:26:12;101396.88;;;10.89;35.33
75923;BME280;64602;47.542;19.090;2023-02-28T14:31:25;101410.88;;;9.94;36.89
75923;BME280;64602;47.542;19.090;2023-02-28T14:36:39;101384.25;;;9.02;39.15
75923;BME280;64602;47.542;19.090;2023-02-28T14:41:43;101384.38;;;8.75;39.39
75923;BME280;64602;47.542;19.090;2023-02-28T14:46:54;101386.56;;;8.47;39.77
75923;BME280;64602;47.542;19.090;2023-02-28T14:52:09;101387.41;;;8.34;40.40
75923;BME280;64602;47.542;19.090;2023-02-28T14:57:31;101380.81;;;8.03;41.12
75923;BME280;64602;47.542;19.090;2023-02-28T15:02:35;101384.38;;;7.97;41.30
75923;BME280;64602;47.542;19.090;2023-02-28T15:07:37;101391.88;;;7.88;42.39
75923;BME280;64602;47.542;19.090;2023-02-28T15:12:40;101390.63;;;7.78;42.45
75923;BME280;64602;47.542;19.090;2023-02-28T15:17:54;101374.44;;;7.58;42.71
75923;BME280;64602;47.542;19.090;2023-02-28T15:22:58;101376.91;;;7.39;43.34
75923;BME280;64602;47.542;19.090;2023-02-28T15:28:00;101383.56;;;7.23;44.14
75923;BME280;64602;47.542;19.090;2023-02-28T15:33:04;101399.34;;;7.26;44.45
75923;BME280;64602;47.542;19.090;2023-02-28T15:38:27;101391.62;;;7.10;44.56
75923;BME280;64602;47.542;19.090;2023-02-28T15:43:30;101395.31;;;6.96;44.97
75923;BME280;64602;47.542;19.090;2023-02-28T15:48:34;101386.97;;;6.77;46.15
75923;BME280;64602;47.542;19.090;2023-02-28T15:53:50;101387.72;;;6.64;46.54
75923;BME280;64602;47.542;19.090;2023-02-28T15:58:58;101368.81;;;6.51;46.84
75923;BME280;64602;47.542;19.090;2023-02-28T16:04:11;101379.75;;;6.43;47.38
75923;BME280;64602;47.542;19.090;2023-02-28T16:09:15;101380.75;;;6.29;47.87
75923;BME280;64602;47.542;19.090;2023-02-28T16:14:24;101369.28;;;6.20;48.21
75923;BME280;64602;47.542;19.090;2023-02-28T16:19:26;101396.88;;;6.22;48.24
75923;BME280;64602;47.542;19.090;2023-02-28T16:24:28;101382.63;;;6.00;48.59
75923;BME280;64602;47.542;19.090;2023-02-28T16:29:35;101383.13;;;5.89;48.91
75923;BME280;64602;47.542;19.090;2023-02-28T16:34:38;101396.44;;;5.90;49.38
75923;BME280;64602;47.542;19.090;2023-02-28T16:39:41;101400.94;;;5.83;49.52
75923;BME280;64602;47.542;19.090;2023-02-28T16:44:43;101392.72;;;5.70;50.01
75923;BME280;64602;47.542;19.090;2023-02-28T16:49:46;101412.06;;;5.80;50.18
75923;BME280;64602;47.542;19.090;2023-02-28T16:54:49;101419.53;;;5.78;50.35
75923;BME280;64602;47.542;19.090;2023-02-28T16:59:51;101423.47;;;5.75;50.86
75923;BME280;64602;47.542;19.090;2023-02-28T17:04:54;101427.63;;;5.78;51.02
75923;BME280;64602;47.542;19.090;2023-02-28T17:09:56;101431.53;;;5.75;51.17
75923;BME280;64602;47.542;19.090;2023-02-28T17:14:58;101428.56;;;5.70;51.62
75923;BME280;64602;47.542;19.090;2023-02-28T17:20:00;101442.09;;;5.77;51.89
75923;BME280;64602;47.542;19.090;2023-02-28T17:25:02;101422.94;;;5.65;52.32
75923;BME280;64602;47.542;19.090;2023-02-28T17:30:17;101435.66;;;5.71;52.71
75923;BME280;64602;47.542;19.090;2023-02-28T17:35:19;101425.97;;;5.55;53.09
75923;BME280;64602;47.542;19.090;2023-02-28T17:40:23;101429.28;;;5.57;53.12
75923;BME280;64602;47.542;19.090;2023-02-28T17:45:25;101438.19;;;5.58;53.37
75923;BME280;64602;47.542;19.090;2023-02-28T17:50:27;101445.91;;;5.61;53.54
75923;BME280;64602;47.542;19.090;2023-02-28T17:55:29;101425.78;;;5.35;54.00
75923;BME280;64602;47.542;19.090;2023-02-28T18:00:31;101432.84;;;5.37;54.07
75923;BME280;64602;47.542;19.090;2023-02-28T18:05:36;101452.59;;;5.44;54.06
75923;BME280;64602;47.542;19.090;2023-02-28T18:10:39;101444.88;;;5.41;54.28
75923;BME280;64602;47.542;19.090;2023-02-28T18:15:41;101452.19;;;5.47;54.21
75923;BME280;64602;47.542;19.090;2023-02-28T18:20:43;101446.75;;;5.40;54.36
75923;BME280;64602;47.542;19.090;2023-02-28T18:25:45;101439.06;;;5.37;54.45
75923;BME280;64602;47.542;19.090;2023-02-28T18:30:47;101455.91;;;5.46;54.20
75923;BME280;64602;47.542;19.090;2023-02-28T18:35:54;101458.41;;;5.47;54.58
75923;BME280;64602;47.542;19.090;2023-02-28T18:40:59;101447.97;;;5.38;54.29
75923;BME280;64602;47.542;19.090;2023-02-28T18:46:07;101457.19;;;5.50;54.52
75923;BME280;64602;47.542;19.090;2023-02-28T18:51:12;101439.69;;;5.39;54.30
75923;BME280;64602;47.542;19.090;2023-02-28T18:56:16;101450.91;;;5.43;54.37
75923;BME280;64602;47.542;19.090;2023-02-28T19:01:24;101444.88;;;5.41;54.46
75923;BME280;64602;47.542;19.090;2023-02-28T19:06:32;101463.03;;;5.53;54.45
75923;BME280;64602;47.542;19.090;2023-02-28T19:11:35;101456.12;;;5.44;54.23
75923;BME280;64602;47.542;19.090;2023-02-28T19:16:37;101450.41;;;5.32;54.46
75923;BME280;64602;47.542;19.090;2023-02-28T19:21:40;101446.63;;;5.27;54.65
75923;BME280;64602;47.542;19.090;2023-02-28T19:26:42;101464.59;;;5.26;54.83
75923;BME280;64602;47.542;19.090;2023-02-28T19:31:44;101448.75;;;5.17;54.73
75923;BME280;64602;47.542;19.090;2023-02-28T19:36:46;101442.72;;;5.14;55.00
75923;BME280;64602;47.542;19.090;2023-02-28T19:41:49;101448.00;;;5.23;55.01
75923;BME280;64602;47.542;19.090;2023-02-28T19:46:51;101452.50;;;5.16;54.98
75923;BME280;64602;47.542;19.090;2023-02-28T19:51:53;101450.87;;;5.21;55.25
75923;BME280;64602;47.542;19.090;2023-02-28T19:56:56;101441.72;;;5.16;55.22
75923;BME280;64602;47.542;19.090;2023-02-28T20:02:02;101456.75;;;5.25;55.34
75923;BME280;64602;47.542;19.090;2023-02-28T20:07:05;101454.03;;;5.25;55.42
75923;BME280;64602;47.542;19.090;2023-02-28T20:12:07;101443.59;;;5.15;55.62
75923;BME280;64602;47.542;19.090;2023-02-28T20:17:24;101436.91;;;5.11;55.64
75923;BME280;64602;47.542;19.090;2023-02-28T20:22:26;101443.34;;;5.10;55.47
75923;BME280;64602;47.542;19.090;2023-02-28T20:27:29;101457.37;;;5.27;55.55
75923;BME280;64602;47.542;19.090;2023-02-28T20:32:34;101453.50;;;5.14;55.83
75923;BME280;64602;47.542;19.090;2023-02-28T20:37:37;101462.88;;;5.19;55.95
75923;BME280;64602;47.542;19.090;2023-02-28T20:42:39;101443.50;;;5.08;56.25
75923;BME280;64602;47.542;19.090;2023-02-28T20:47:42;101449.34;;;5.12;56.21
75923;BME280;64602;47.542;19.090;2023-02-28T20:52:45;101454.09;;;5.10;56.48
75923;BME280;64602;47.542;19.090;2023-02-28T20:57:48;101438.25;;;5.00;56.65
75923;BME280;64602;47.542;19.090;2023-02-28T21:02:50;101438.59;;;4.97;56.66
75923;BME280;64602;47.542;19.090;2023-02-28T21:07:53;101447.59;;;5.04;56.86
75923;BME280;64602;47.542;19.090;2023-02-28T21:12:55;101432.41;;;4.97;57.15
